Ashland, Texas
Current Conditions -  °F | °C
As of 6:53 AM on Wednesday 22 Oct 2014 (Local Time) from KGGG Reporting Station
Haze Haze  
Wind Chill: 59°   Ceiling: Unl
Heat Index: 59°   Visibility: 4mi
Dew Point: 57°   Wind: 5mph
Humidity: 93%   Direction: 90°E
Pressure: 30.11"   Gusts: NA
Location:  32.6998°N, 94.6696°W
Report Text: KGGG 221153Z 09004KT 4SM BR CLR 15/14 A3011 RMK AO2 SLP192 T01500139 10167 20139 53013
Loading
Personal Weather Stations






























Interactive Weather Map
Tropical Storm Tracking
New forecast layout! Learn more

10-Day Weather Forecast

Advertisements
Track Severe Weather on mobile